ADDS METAR Data INFO
IDs: Format: Raw Decoded Include TAF

Data at: 1906 UTC 23 Apr 2018

METAR for:KSUA (Stuart/Witham Fld, FL, US)
Text:KSUA 231850Z 13007KT 7SM -RA SCT016 BKN040 24/21 A3001
Temperature: 24.0°C ( 75°F)
Dewpoint: 21.0°C ( 70°F) [RH = 83%]
Pressure (altimeter):30.01 inches Hg (1016.3 mb)
Winds:from the SE (130 degrees) at 8 MPH (7 knots; 3.6 m/s)
Visibility: 7 sm ( 11 km)
Ceiling:4000 feet AGL
Clouds: scattered clouds at 1600 feet AGL, broken clouds at 4000 feet AGL
Weather:-RA (light rain)